sensor_id;sensor_type;location;lat;lon;timestamp;P1;durP1;ratioP1;P2;durP2;ratioP2
3943;SDS011;1986;52.546;13.428;2022-12-07T00:01:39;0.50;;;0.50;;
3943;SDS011;1986;52.546;13.428;2022-12-07T00:04:07;5.83;;;3.20;;
3943;SDS011;1986;52.546;13.428;2022-12-07T00:06:37;4.13;;;3.83;;
3943;SDS011;1986;52.546;13.428;2022-12-07T00:09:11;3.83;;;2.33;;
3943;SDS011;1986;52.546;13.428;2022-12-07T00:11:39;4.50;;;2.73;;
3943;SDS011;1986;52.546;13.428;2022-12-07T00:14:06;3.20;;;2.00;;
3943;SDS011;1986;52.546;13.428;2022-12-07T00:16:36;3.43;;;2.00;;
3943;SDS011;1986;52.546;13.428;2022-12-07T00:19:03;9.03;;;4.60;;
3943;SDS011;1986;52.546;13.428;2022-12-07T00:21:34;2.07;;;1.50;;
3943;SDS011;1986;52.546;13.428;2022-12-07T00:24:02;4.73;;;1.53;;
3943;SDS011;1986;52.546;13.428;2022-12-07T00:26:32;6.93;;;4.83;;
3943;SDS011;1986;52.546;13.428;2022-12-07T00:29:01;7.10;;;2.27;;
3943;SDS011;1986;52.546;13.428;2022-12-07T00:31:31;4.93;;;2.50;;
3943;SDS011;1986;52.546;13.428;2022-12-07T00:34:00;2.40;;;1.80;;
3943;SDS011;1986;52.546;13.428;2022-12-07T00:36:28;10.30;;;4.77;;
3943;SDS011;1986;52.546;13.428;2022-12-07T00:38:55;5.23;;;3.73;;
3943;SDS011;1986;52.546;13.428;2022-12-07T00:41:24;2.43;;;1.63;;
3943;SDS011;1986;52.546;13.428;2022-12-07T00:43:59;18.80;;;1.97;;
3943;SDS011;1986;52.546;13.428;2022-12-07T00:46:26;2.33;;;2.03;;
3943;SDS011;1986;52.546;13.428;2022-12-07T00:48:55;3.33;;;2.57;;
3943;SDS011;1986;52.546;13.428;2022-12-07T00:51:22;3.13;;;2.80;;
3943;SDS011;1986;52.546;13.428;2022-12-07T00:53:50;5.33;;;2.60;;
3943;SDS011;1986;52.546;13.428;2022-12-07T00:56:18;0.90;;;0.90;;
3943;SDS011;1986;52.546;13.428;2022-12-07T00:58:49;5.00;;;4.50;;
3943;SDS011;1986;52.546;13.428;2022-12-07T01:01:18;2.90;;;2.80;;
3943;SDS011;1986;52.546;13.428;2022-12-07T01:03:45;7.60;;;2.70;;
3943;SDS011;1986;52.546;13.428;2022-12-07T01:06:13;4.33;;;3.10;;
3943;SDS011;1986;52.546;13.428;2022-12-07T01:08:41;2.23;;;2.13;;
3943;SDS011;1986;52.546;13.428;2022-12-07T01:11:09;1.03;;;1.00;;
3943;SDS011;1986;52.546;13.428;2022-12-07T01:13:38;9.63;;;3.83;;
3943;SDS011;1986;52.546;13.428;2022-12-07T01:16:05;2.70;;;2.40;;
3943;SDS011;1986;52.546;13.428;2022-12-07T01:18:35;3.13;;;2.10;;
3943;SDS011;1986;52.546;13.428;2022-12-07T01:21:03;5.10;;;2.60;;
3943;SDS011;1986;52.546;13.428;2022-12-07T01:23:32;3.47;;;3.27;;
3943;SDS011;1986;52.546;13.428;2022-12-07T01:26:00;1.37;;;1.37;;
3943;SDS011;1986;52.546;13.428;2022-12-07T01:28:30;3.43;;;3.13;;
3943;SDS011;1986;52.546;13.428;2022-12-07T01:30:58;3.00;;;2.80;;
3943;SDS011;1986;52.546;13.428;2022-12-07T01:33:26;2.87;;;2.80;;
3943;SDS011;1986;52.546;13.428;2022-12-07T01:35:56;6.83;;;4.90;;
3943;SDS011;1986;52.546;13.428;2022-12-07T01:38:28;1.30;;;1.30;;
3943;SDS011;1986;52.546;13.428;2022-12-07T01:40:55;2.37;;;2.27;;
3943;SDS011;1986;52.546;13.428;2022-12-07T01:43:23;7.27;;;5.40;;
3943;SDS011;1986;52.546;13.428;2022-12-07T01:45:51;7.40;;;4.20;;
3943;SDS011;1986;52.546;13.428;2022-12-07T01:48:19;5.53;;;3.97;;
3943;SDS011;1986;52.546;13.428;2022-12-07T01:50:50;2.97;;;2.90;;
3943;SDS011;1986;52.546;13.428;2022-12-07T01:53:19;3.47;;;3.33;;
3943;SDS011;1986;52.546;13.428;2022-12-07T01:55:47;3.30;;;3.00;;
3943;SDS011;1986;52.546;13.428;2022-12-07T01:58:18;3.50;;;3.20;;
3943;SDS011;1986;52.546;13.428;2022-12-07T02:00:45;4.23;;;3.90;;
3943;SDS011;1986;52.546;13.428;2022-12-07T02:03:13;5.67;;;5.27;;
3943;SDS011;1986;52.546;13.428;2022-12-07T02:05:44;3.77;;;3.40;;
3943;SDS011;1986;52.546;13.428;2022-12-07T02:08:12;2.10;;;2.10;;
3943;SDS011;1986;52.546;13.428;2022-12-07T02:10:42;4.07;;;3.87;;
3943;SDS011;1986;52.546;13.428;2022-12-07T02:13:09;3.83;;;3.73;;
3943;SDS011;1986;52.546;13.428;2022-12-07T02:15:44;3.53;;;3.43;;
3943;SDS011;1986;52.546;13.428;2022-12-07T02:18:34;6.10;;;4.30;;
3943;SDS011;1986;52.546;13.428;2022-12-07T02:21:11;3.60;;;3.50;;
3943;SDS011;1986;52.546;13.428;2022-12-07T02:23:47;3.27;;;3.17;;
3943;SDS011;1986;52.546;13.428;2022-12-07T02:26:50;4.33;;;4.17;;
3943;SDS011;1986;52.546;13.428;2022-12-07T02:29:34;8.93;;;4.40;;
3943;SDS011;1986;52.546;13.428;2022-12-07T02:32:06;3.67;;;3.57;;
3943;SDS011;1986;52.546;13.428;2022-12-07T02:34:39;5.63;;;5.13;;
3943;SDS011;1986;52.546;13.428;2022-12-07T02:37:14;4.43;;;4.33;;
3943;SDS011;1986;52.546;13.428;2022-12-07T02:39:50;4.30;;;4.20;;
3943;SDS011;1986;52.546;13.428;2022-12-07T02:42:23;8.73;;;6.80;;
3943;SDS011;1986;52.546;13.428;2022-12-07T02:44:55;4.47;;;4.17;;
3943;SDS011;1986;52.546;13.428;2022-12-07T02:47:22;3.97;;;3.87;;
3943;SDS011;1986;52.546;13.428;2022-12-07T02:49:51;3.73;;;3.63;;
3943;SDS011;1986;52.546;13.428;2022-12-07T02:52:18;5.93;;;5.37;;
3943;SDS011;1986;52.546;13.428;2022-12-07T02:54:45;4.43;;;4.03;;
3943;SDS011;1986;52.546;13.428;2022-12-07T02:57:15;5.83;;;5.43;;
3943;SDS011;1986;52.546;13.428;2022-12-07T03:00:01;3.50;;;3.40;;
3943;SDS011;1986;52.546;13.428;2022-12-07T03:02:33;5.30;;;4.80;;
3943;SDS011;1986;52.546;13.428;2022-12-07T03:05:11;5.43;;;5.13;;
3943;SDS011;1986;52.546;13.428;2022-12-07T03:07:49;4.10;;;3.20;;
3943;SDS011;1986;52.546;13.428;2022-12-07T03:10:19;5.70;;;5.30;;
3943;SDS011;1986;52.546;13.428;2022-12-07T03:12:54;6.70;;;6.00;;
3943;SDS011;1986;52.546;13.428;2022-12-07T03:15:31;4.60;;;3.67;;
3943;SDS011;1986;52.546;13.428;2022-12-07T03:18:02;2.20;;;2.20;;
3943;SDS011;1986;52.546;13.428;2022-12-07T03:20:31;7.30;;;6.80;;
3943;SDS011;1986;52.546;13.428;2022-12-07T03:23:00;2.93;;;2.83;;
3943;SDS011;1986;52.546;13.428;2022-12-07T03:25:30;5.03;;;4.63;;
3943;SDS011;1986;52.546;13.428;2022-12-07T03:28:01;4.37;;;3.90;;
3943;SDS011;1986;52.546;13.428;2022-12-07T03:30:32;4.30;;;4.10;;
3943;SDS011;1986;52.546;13.428;2022-12-07T03:33:04;3.70;;;3.17;;
3943;SDS011;1986;52.546;13.428;2022-12-07T03:35:34;9.97;;;6.80;;
3943;SDS011;1986;52.546;13.428;2022-12-07T03:38:08;2.30;;;2.20;;
3943;SDS011;1986;52.546;13.428;2022-12-07T03:40:43;9.50;;;3.97;;
3943;SDS011;1986;52.546;13.428;2022-12-07T03:43:14;1.63;;;1.63;;
3943;SDS011;1986;52.546;13.428;2022-12-07T03:45:45;3.57;;;3.33;;
3943;SDS011;1986;52.546;13.428;2022-12-07T03:48:24;2.50;;;2.50;;
3943;SDS011;1986;52.546;13.428;2022-12-07T03:50:55;6.47;;;6.00;;
3943;SDS011;1986;52.546;13.428;2022-12-07T03:53:29;3.23;;;2.90;;
3943;SDS011;1986;52.546;13.428;2022-12-07T03:56:01;3.50;;;3.40;;
3943;SDS011;1986;52.546;13.428;2022-12-07T03:58:28;4.33;;;4.03;;
3943;SDS011;1986;52.546;13.428;2022-12-07T04:00:58;7.03;;;3.00;;
3943;SDS011;1986;52.546;13.428;2022-12-07T04:03:25;1.93;;;1.93;;
3943;SDS011;1986;52.546;13.428;2022-12-07T04:05:52;4.17;;;3.97;;
3943;SDS011;1986;52.546;13.428;2022-12-07T04:08:19;7.53;;;4.37;;
3943;SDS011;1986;52.546;13.428;2022-12-07T04:10:46;2.60;;;2.50;;
3943;SDS011;1986;52.546;13.428;2022-12-07T04:13:13;9.70;;;5.57;;
3943;SDS011;1986;52.546;13.428;2022-12-07T04:15:39;4.17;;;3.73;;
3943;SDS011;1986;52.546;13.428;2022-12-07T04:18:11;14.23;;;7.90;;
3943;SDS011;1986;52.546;13.428;2022-12-07T04:20:38;6.87;;;1.70;;
3943;SDS011;1986;52.546;13.428;2022-12-07T04:23:04;11.63;;;5.83;;
3943;SDS011;1986;52.546;13.428;2022-12-07T04:25:32;2.80;;;2.57;;
3943;SDS011;1986;52.546;13.428;2022-12-07T04:27:58;3.83;;;3.57;;
3943;SDS011;1986;52.546;13.428;2022-12-07T04:30:25;1.67;;;1.67;;
3943;SDS011;1986;52.546;13.428;2022-12-07T04:32:52;5.50;;;4.10;;
3943;SDS011;1986;52.546;13.428;2022-12-07T04:35:21;3.60;;;2.03;;
3943;SDS011;1986;52.546;13.428;2022-12-07T04:37:47;3.07;;;2.87;;
3943;SDS011;1986;52.546;13.428;2022-12-07T04:40:14;4.57;;;3.10;;
3943;SDS011;1986;52.546;13.428;2022-12-07T04:42:41;3.10;;;2.90;;
3943;SDS011;1986;52.546;13.428;2022-12-07T04:45:09;1.67;;;1.57;;
3943;SDS011;1986;52.546;13.428;2022-12-07T04:47:36;2.77;;;2.40;;
3943;SDS011;1986;52.546;13.428;2022-12-07T04:50:03;3.00;;;2.70;;
3943;SDS011;1986;52.546;13.428;2022-12-07T04:52:32;0.90;;;0.90;;
3943;SDS011;1986;52.546;13.428;2022-12-07T04:55:00;4.73;;;3.73;;
3943;SDS011;1986;52.546;13.428;2022-12-07T04:57:26;16.83;;;4.23;;
3943;SDS011;1986;52.546;13.428;2022-12-07T04:59:53;1.53;;;1.53;;
3943;SDS011;1986;52.546;13.428;2022-12-07T05:02:20;5.27;;;3.40;;
3943;SDS011;1986;52.546;13.428;2022-12-07T05:04:47;12.60;;;4.37;;
3943;SDS011;1986;52.546;13.428;2022-12-07T05:07:14;8.40;;;5.00;;
3943;SDS011;1986;52.546;13.428;2022-12-07T05:09:42;8.83;;;5.20;;
3943;SDS011;1986;52.546;13.428;2022-12-07T05:12:09;10.70;;;5.03;;
3943;SDS011;1986;52.546;13.428;2022-12-07T05:14:36;10.90;;;4.37;;
3943;SDS011;1986;52.546;13.428;2022-12-07T05:17:04;7.53;;;2.03;;
3943;SDS011;1986;52.546;13.428;2022-12-07T05:19:30;10.07;;;4.73;;
3943;SDS011;1986;52.546;13.428;2022-12-07T05:21:57;4.83;;;2.30;;
3943;SDS011;1986;52.546;13.428;2022-12-07T05:24:24;1.90;;;0.70;;
3943;SDS011;1986;52.546;13.428;2022-12-07T05:26:52;4.23;;;3.83;;
3943;SDS011;1986;52.546;13.428;2022-12-07T05:29:19;10.70;;;6.13;;
3943;SDS011;1986;52.546;13.428;2022-12-07T05:31:48;3.03;;;2.73;;
3943;SDS011;1986;52.546;13.428;2022-12-07T05:34:15;4.30;;;3.13;;
3943;SDS011;1986;52.546;13.428;2022-12-07T05:36:43;0.40;;;0.40;;
3943;SDS011;1986;52.546;13.428;2022-12-07T05:39:10;8.07;;;4.53;;
3943;SDS011;1986;52.546;13.428;2022-12-07T05:41:36;9.73;;;4.77;;
3943;SDS011;1986;52.546;13.428;2022-12-07T05:44:22;15.47;;;7.63;;
3943;SDS011;1986;52.546;13.428;2022-12-07T05:46:49;0.60;;;0.57;;
3943;SDS011;1986;52.546;13.428;2022-12-07T05:49:16;17.37;;;4.90;;
3943;SDS011;1986;52.546;13.428;2022-12-07T05:51:43;11.83;;;5.20;;
3943;SDS011;1986;52.546;13.428;2022-12-07T05:54:10;7.90;;;4.70;;
3943;SDS011;1986;52.546;13.428;2022-12-07T05:56:37;11.10;;;6.80;;
3943;SDS011;1986;52.546;13.428;2022-12-07T05:59:04;6.20;;;5.57;;
3943;SDS011;1986;52.546;13.428;2022-12-07T06:01:50;14.67;;;6.60;;
3943;SDS011;1986;52.546;13.428;2022-12-07T06:04:18;9.07;;;5.90;;
3943;SDS011;1986;52.546;13.428;2022-12-07T06:06:46;9.97;;;6.63;;
3943;SDS011;1986;52.546;13.428;2022-12-07T06:09:13;14.73;;;6.60;;
3943;SDS011;1986;52.546;13.428;2022-12-07T06:11:41;5.80;;;4.03;;
3943;SDS011;1986;52.546;13.428;2022-12-07T06:14:25;6.90;;;1.50;;
3943;SDS011;1986;52.546;13.428;2022-12-07T06:16:54;4.80;;;2.20;;
3943;SDS011;1986;52.546;13.428;2022-12-07T06:19:21;4.43;;;3.70;;
3943;SDS011;1986;52.546;13.428;2022-12-07T06:21:48;2.30;;;2.20;;
3943;SDS011;1986;52.546;13.428;2022-12-07T06:24:15;10.40;;;5.70;;
3943;SDS011;1986;52.546;13.428;2022-12-07T06:26:42;4.10;;;3.87;;
3943;SDS011;1986;52.546;13.428;2022-12-07T06:29:10;31.17;;;8.83;;
3943;SDS011;1986;52.546;13.428;2022-12-07T06:31:37;14.83;;;5.70;;
3943;SDS011;1986;52.546;13.428;2022-12-07T06:34:06;11.07;;;5.17;;
3943;SDS011;1986;52.546;13.428;2022-12-07T06:36:36;16.20;;;7.50;;
3943;SDS011;1986;52.546;13.428;2022-12-07T06:39:03;9.47;;;5.13;;
3943;SDS011;1986;52.546;13.428;2022-12-07T06:41:34;5.20;;;3.40;;
3943;SDS011;1986;52.546;13.428;2022-12-07T06:44:02;10.57;;;5.27;;
3943;SDS011;1986;52.546;13.428;2022-12-07T06:46:29;3.70;;;3.40;;
3943;SDS011;1986;52.546;13.428;2022-12-07T06:48:56;7.30;;;4.67;;
3943;SDS011;1986;52.546;13.428;2022-12-07T06:51:25;9.97;;;6.07;;
3943;SDS011;1986;52.546;13.428;2022-12-07T06:53:52;11.03;;;5.20;;
3943;SDS011;1986;52.546;13.428;2022-12-07T06:56:19;16.67;;;7.10;;
3943;SDS011;1986;52.546;13.428;2022-12-07T06:58:46;9.70;;;5.13;;
3943;SDS011;1986;52.546;13.428;2022-12-07T07:01:13;11.13;;;6.53;;
3943;SDS011;1986;52.546;13.428;2022-12-07T07:03:43;9.63;;;6.43;;
3943;SDS011;1986;52.546;13.428;2022-12-07T07:06:11;6.90;;;6.23;;
3943;SDS011;1986;52.546;13.428;2022-12-07T07:08:40;18.37;;;5.77;;
3943;SDS011;1986;52.546;13.428;2022-12-07T07:11:07;8.60;;;3.30;;
3943;SDS011;1986;52.546;13.428;2022-12-07T07:13:35;14.27;;;5.60;;
3943;SDS011;1986;52.546;13.428;2022-12-07T07:16:02;9.20;;;6.63;;
3943;SDS011;1986;52.546;13.428;2022-12-07T07:18:29;5.97;;;3.43;;
3943;SDS011;1986;52.546;13.428;2022-12-07T07:20:56;24.47;;;10.17;;
3943;SDS011;1986;52.546;13.428;2022-12-07T07:23:23;18.70;;;7.53;;
3943;SDS011;1986;52.546;13.428;2022-12-07T07:25:52;8.90;;;5.47;;
3943;SDS011;1986;52.546;13.428;2022-12-07T07:28:19;10.50;;;5.30;;
3943;SDS011;1986;52.546;13.428;2022-12-07T07:30:46;20.53;;;8.57;;
3943;SDS011;1986;52.546;13.428;2022-12-07T07:33:13;8.10;;;4.83;;
3943;SDS011;1986;52.546;13.428;2022-12-07T07:35:40;15.50;;;6.87;;
3943;SDS011;1986;52.546;13.428;2022-12-07T07:38:08;10.87;;;4.90;;
3943;SDS011;1986;52.546;13.428;2022-12-07T07:40:35;11.20;;;5.53;;
3943;SDS011;1986;52.546;13.428;2022-12-07T07:43:04;17.53;;;8.60;;
3943;SDS011;1986;52.546;13.428;2022-12-07T07:45:31;11.07;;;4.43;;
3943;SDS011;1986;52.546;13.428;2022-12-07T07:47:58;9.67;;;7.63;;
3943;SDS011;1986;52.546;13.428;2022-12-07T07:50:25;14.70;;;7.50;;
3943;SDS011;1986;52.546;13.428;2022-12-07T07:52:52;12.80;;;4.57;;
3943;SDS011;1986;52.546;13.428;2022-12-07T07:55:19;8.13;;;4.50;;
3943;SDS011;1986;52.546;13.428;2022-12-07T07:57:46;7.63;;;4.20;;
3943;SDS011;1986;52.546;13.428;2022-12-07T08:00:15;13.43;;;4.27;;
3943;SDS011;1986;52.546;13.428;2022-12-07T08:02:42;4.03;;;3.50;;
3943;SDS011;1986;52.546;13.428;2022-12-07T08:05:17;5.43;;;4.07;;
3943;SDS011;1986;52.546;13.428;2022-12-07T08:07:44;5.07;;;4.60;;
3943;SDS011;1986;52.546;13.428;2022-12-07T08:10:12;8.20;;;5.30;;
3943;SDS011;1986;52.546;13.428;2022-12-07T08:12:40;10.70;;;5.90;;
3943;SDS011;1986;52.546;13.428;2022-12-07T08:15:23;5.53;;;4.37;;
3943;SDS011;1986;52.546;13.428;2022-12-07T08:17:56;5.13;;;4.40;;
3943;SDS011;1986;52.546;13.428;2022-12-07T08:20:26;4.03;;;3.73;;
3943;SDS011;1986;52.546;13.428;2022-12-07T08:22:55;4.30;;;2.70;;
3943;SDS011;1986;52.546;13.428;2022-12-07T08:25:23;7.40;;;5.07;;
3943;SDS011;1986;52.546;13.428;2022-12-07T08:27:50;7.10;;;3.63;;
3943;SDS011;1986;52.546;13.428;2022-12-07T08:30:18;7.53;;;5.00;;
3943;SDS011;1986;52.546;13.428;2022-12-07T08:32:47;3.30;;;3.03;;
3943;SDS011;1986;52.546;13.428;2022-12-07T08:35:15;4.80;;;4.60;;
3943;SDS011;1986;52.546;13.428;2022-12-07T08:37:45;2.40;;;2.20;;
3943;SDS011;1986;52.546;13.428;2022-12-07T08:40:20;5.70;;;4.10;;
3943;SDS011;1986;52.546;13.428;2022-12-07T08:42:50;3.20;;;3.10;;
3943;SDS011;1986;52.546;13.428;2022-12-07T08:45:17;12.53;;;4.47;;
3943;SDS011;1986;52.546;13.428;2022-12-07T08:47:48;5.67;;;5.37;;
3943;SDS011;1986;52.546;13.428;2022-12-07T08:50:18;5.80;;;5.40;;
3943;SDS011;1986;52.546;13.428;2022-12-07T08:52:47;5.80;;;5.50;;
3943;SDS011;1986;52.546;13.428;2022-12-07T08:55:17;6.93;;;6.33;;
3943;SDS011;1986;52.546;13.428;2022-12-07T08:57:44;5.30;;;5.00;;
3943;SDS011;1986;52.546;13.428;2022-12-07T09:00:12;6.03;;;5.50;;
3943;SDS011;1986;52.546;13.428;2022-12-07T09:02:39;6.67;;;6.43;;
3943;SDS011;1986;52.546;13.428;2022-12-07T09:05:08;6.63;;;6.33;;
3943;SDS011;1986;52.546;13.428;2022-12-07T09:07:40;6.00;;;5.80;;
3943;SDS011;1986;52.546;13.428;2022-12-07T09:10:13;8.20;;;7.87;;
3943;SDS011;1986;52.546;13.428;2022-12-07T09:12:40;7.20;;;7.00;;
3943;SDS011;1986;52.546;13.428;2022-12-07T09:15:10;8.73;;;8.27;;
3943;SDS011;1986;52.546;13.428;2022-12-07T09:17:43;7.07;;;6.97;;
3943;SDS011;1986;52.546;13.428;2022-12-07T09:20:12;8.20;;;7.73;;
3943;SDS011;1986;52.546;13.428;2022-12-07T09:22:39;31.03;;;8.37;;
3943;SDS011;1986;52.546;13.428;2022-12-07T09:25:18;8.77;;;8.47;;
3943;SDS011;1986;52.546;13.428;2022-12-07T09:27:47;8.80;;;8.40;;
3943;SDS011;1986;52.546;13.428;2022-12-07T09:30:37;10.27;;;9.40;;
3943;SDS011;1986;52.546;13.428;2022-12-07T09:33:12;8.67;;;8.57;;
3943;SDS011;1986;52.546;13.428;2022-12-07T09:35:45;8.90;;;8.60;;
3943;SDS011;1986;52.546;13.428;2022-12-07T09:38:13;8.77;;;8.47;;
3943;SDS011;1986;52.546;13.428;2022-12-07T09:40:41;8.73;;;8.53;;
3943;SDS011;1986;52.546;13.428;2022-12-07T09:43:11;9.73;;;9.20;;
3943;SDS011;1986;52.546;13.428;2022-12-07T09:45:48;9.53;;;8.87;;
3943;SDS011;1986;52.546;13.428;2022-12-07T09:48:20;10.03;;;9.63;;
3943;SDS011;1986;52.546;13.428;2022-12-07T09:51:00;10.00;;;9.50;;
3943;SDS011;1986;52.546;13.428;2022-12-07T09:53:40;10.60;;;10.10;;
3943;SDS011;1986;52.546;13.428;2022-12-07T09:56:28;9.30;;;9.10;;
3943;SDS011;1986;52.546;13.428;2022-12-07T09:59:09;10.80;;;10.30;;
3943;SDS011;1986;52.546;13.428;2022-12-07T10:01:42;10.00;;;9.70;;
3943;SDS011;1986;52.546;13.428;2022-12-07T10:04:34;9.03;;;8.83;;
3943;SDS011;1986;52.546;13.428;2022-12-07T10:07:26;10.10;;;9.70;;
3943;SDS011;1986;52.546;13.428;2022-12-07T10:09:53;9.60;;;9.30;;
3943;SDS011;1986;52.546;13.428;2022-12-07T10:12:20;9.47;;;9.27;;
3943;SDS011;1986;52.546;13.428;2022-12-07T10:14:54;11.40;;;10.90;;
3943;SDS011;1986;52.546;13.428;2022-12-07T10:17:33;8.90;;;8.70;;
3943;SDS011;1986;52.546;13.428;2022-12-07T10:20:15;9.77;;;9.47;;
3943;SDS011;1986;52.546;13.428;2022-12-07T10:23:01;10.20;;;9.90;;
3943;SDS011;1986;52.546;13.428;2022-12-07T10:25:31;8.70;;;8.50;;
3943;SDS011;1986;52.546;13.428;2022-12-07T10:28:11;9.50;;;9.20;;
3943;SDS011;1986;52.546;13.428;2022-12-07T10:30:51;9.47;;;9.27;;
3943;SDS011;1986;52.546;13.428;2022-12-07T10:33:28;8.30;;;8.13;;
3943;SDS011;1986;52.546;13.428;2022-12-07T10:36:15;8.43;;;8.23;;
3943;SDS011;1986;52.546;13.428;2022-12-07T10:38:50;9.17;;;8.90;;
3943;SDS011;1986;52.546;13.428;2022-12-07T10:41:21;9.13;;;8.93;;
3943;SDS011;1986;52.546;13.428;2022-12-07T10:43:51;10.03;;;9.63;;
3943;SDS011;1986;52.546;13.428;2022-12-07T10:49:51;10.13;;;9.83;;
3943;SDS011;1986;52.546;13.428;2022-12-07T10:52:34;9.53;;;9.23;;
3943;SDS011;1986;52.546;13.428;2022-12-07T10:55:16;10.13;;;9.60;;
3943;SDS011;1986;52.546;13.428;2022-12-07T11:00:49;9.23;;;9.03;;
3943;SDS011;1986;52.546;13.428;2022-12-07T11:03:29;8.63;;;8.53;;
3943;SDS011;1986;52.546;13.428;2022-12-07T11:06:18;9.07;;;8.90;;
3943;SDS011;1986;52.546;13.428;2022-12-07T11:09:02;10.20;;;9.90;;
3943;SDS011;1986;52.546;13.428;2022-12-07T11:11:44;9.00;;;8.80;;
3943;SDS011;1986;52.546;13.428;2022-12-07T11:14:21;10.17;;;9.77;;
3943;SDS011;1986;52.546;13.428;2022-12-07T11:16:55;10.30;;;10.00;;
3943;SDS011;1986;52.546;13.428;2022-12-07T11:19:32;9.50;;;9.07;;
3943;SDS011;1986;52.546;13.428;2022-12-07T11:22:16;9.17;;;8.97;;
3943;SDS011;1986;52.546;13.428;2022-12-07T11:24:53;9.93;;;9.50;;
3943;SDS011;1986;52.546;13.428;2022-12-07T11:27:30;9.40;;;9.20;;
3943;SDS011;1986;52.546;13.428;2022-12-07T11:30:11;11.17;;;10.67;;
3943;SDS011;1986;52.546;13.428;2022-12-07T11:32:44;11.30;;;10.80;;
3943;SDS011;1986;52.546;13.428;2022-12-07T11:35:22;11.50;;;10.97;;
3943;SDS011;1986;52.546;13.428;2022-12-07T11:37:59;11.20;;;10.73;;
3943;SDS011;1986;52.546;13.428;2022-12-07T11:40:33;10.20;;;9.90;;
3943;SDS011;1986;52.546;13.428;2022-12-07T11:43:04;10.07;;;9.53;;
3943;SDS011;1986;52.546;13.428;2022-12-07T11:45:41;9.27;;;9.07;;
3943;SDS011;1986;52.546;13.428;2022-12-07T11:48:10;10.00;;;9.70;;
3943;SDS011;1986;52.546;13.428;2022-12-07T11:50:42;11.43;;;11.03;;
3943;SDS011;1986;52.546;13.428;2022-12-07T11:53:14;11.60;;;10.60;;
3943;SDS011;1986;52.546;13.428;2022-12-07T11:55:46;11.97;;;11.27;;
3943;SDS011;1986;52.546;13.428;2022-12-07T11:58:22;8.90;;;8.73;;
3943;SDS011;1986;52.546;13.428;2022-12-07T12:01:07;10.10;;;9.90;;
3943;SDS011;1986;52.546;13.428;2022-12-07T12:04:02;10.43;;;9.90;;
3943;SDS011;1986;52.546;13.428;2022-12-07T12:06:45;9.50;;;9.20;;
3943;SDS011;1986;52.546;13.428;2022-12-07T12:09:16;10.13;;;9.83;;
3943;SDS011;1986;52.546;13.428;2022-12-07T12:11:52;12.03;;;11.43;;
3943;SDS011;1986;52.546;13.428;2022-12-07T12:14:39;10.93;;;10.53;;
3943;SDS011;1986;52.546;13.428;2022-12-07T12:20:16;9.10;;;8.83;;
3943;SDS011;1986;52.546;13.428;2022-12-07T12:22:49;10.67;;;10.20;;
3943;SDS011;1986;52.546;13.428;2022-12-07T12:25:21;9.53;;;9.33;;
3943;SDS011;1986;52.546;13.428;2022-12-07T12:27:52;8.77;;;8.57;;
3943;SDS011;1986;52.546;13.428;2022-12-07T12:30:29;10.57;;;10.17;;
3943;SDS011;1986;52.546;13.428;2022-12-07T12:33:06;11.03;;;10.60;;
3943;SDS011;1986;52.546;13.428;2022-12-07T12:35:42;9.20;;;8.97;;
3943;SDS011;1986;52.546;13.428;2022-12-07T12:44:41;9.60;;;9.30;;
3943;SDS011;1986;52.546;13.428;2022-12-07T12:47:43;10.60;;;10.00;;
3943;SDS011;1986;52.546;13.428;2022-12-07T12:50:21;9.83;;;9.43;;
3943;SDS011;1986;52.546;13.428;2022-12-07T12:52:51;10.70;;;10.13;;
3943;SDS011;1986;52.546;13.428;2022-12-07T12:58:33;10.17;;;9.87;;
3943;SDS011;1986;52.546;13.428;2022-12-07T13:04:21;10.03;;;9.63;;
3943;SDS011;1986;52.546;13.428;2022-12-07T13:07:08;8.83;;;8.53;;
3943;SDS011;1986;52.546;13.428;2022-12-07T13:09:41;10.53;;;10.03;;
3943;SDS011;1986;52.546;13.428;2022-12-07T13:12:13;10.80;;;10.23;;
3943;SDS011;1986;52.546;13.428;2022-12-07T13:14:53;10.73;;;10.10;;
3943;SDS011;1986;52.546;13.428;2022-12-07T13:23:25;10.10;;;9.60;;
3943;SDS011;1986;52.546;13.428;2022-12-07T13:26:15;9.63;;;9.37;;
3943;SDS011;1986;52.546;13.428;2022-12-07T13:28:47;10.33;;;9.93;;
3943;SDS011;1986;52.546;13.428;2022-12-07T13:31:19;9.30;;;9.10;;
3943;SDS011;1986;52.546;13.428;2022-12-07T13:33:56;9.93;;;9.63;;
3943;SDS011;1986;52.546;13.428;2022-12-07T13:36:27;9.33;;;9.03;;
3943;SDS011;1986;52.546;13.428;2022-12-07T13:38:57;10.27;;;9.97;;
3943;SDS011;1986;52.546;13.428;2022-12-07T13:41:25;11.00;;;10.30;;
3943;SDS011;1986;52.546;13.428;2022-12-07T13:43:55;9.57;;;9.20;;
3943;SDS011;1986;52.546;13.428;2022-12-07T13:46:31;9.73;;;9.53;;
3943;SDS011;1986;52.546;13.428;2022-12-07T13:49:15;10.13;;;9.73;;
3943;SDS011;1986;52.546;13.428;2022-12-07T13:51:49;10.30;;;10.10;;
3943;SDS011;1986;52.546;13.428;2022-12-07T13:54:16;9.57;;;9.37;;
3943;SDS011;1986;52.546;13.428;2022-12-07T13:56:47;10.50;;;10.20;;
3943;SDS011;1986;52.546;13.428;2022-12-07T13:59:16;12.07;;;11.33;;
3943;SDS011;1986;52.546;13.428;2022-12-07T14:01:46;10.63;;;10.30;;
3943;SDS011;1986;52.546;13.428;2022-12-07T14:04:18;9.77;;;9.57;;
3943;SDS011;1986;52.546;13.428;2022-12-07T14:06:55;10.73;;;10.23;;
3943;SDS011;1986;52.546;13.428;2022-12-07T14:09:22;10.70;;;10.40;;
3943;SDS011;1986;52.546;13.428;2022-12-07T14:11:51;12.03;;;11.33;;
3943;SDS011;1986;52.546;13.428;2022-12-07T14:14:20;11.23;;;10.73;;
3943;SDS011;1986;52.546;13.428;2022-12-07T14:17:02;12.87;;;11.93;;
3943;SDS011;1986;52.546;13.428;2022-12-07T14:19:40;11.50;;;10.37;;
3943;SDS011;1986;52.546;13.428;2022-12-07T14:22:17;10.90;;;10.40;;
3943;SDS011;1986;52.546;13.428;2022-12-07T14:24:50;10.50;;;10.20;;
3943;SDS011;1986;52.546;13.428;2022-12-07T14:27:24;10.60;;;10.30;;
3943;SDS011;1986;52.546;13.428;2022-12-07T14:29:58;11.17;;;10.57;;
3943;SDS011;1986;52.546;13.428;2022-12-07T14:32:34;11.53;;;11.13;;
3943;SDS011;1986;52.546;13.428;2022-12-07T14:35:02;9.93;;;9.53;;
3943;SDS011;1986;52.546;13.428;2022-12-07T14:37:41;11.93;;;11.07;;
3943;SDS011;1986;52.546;13.428;2022-12-07T14:40:12;11.77;;;11.07;;
3943;SDS011;1986;52.546;13.428;2022-12-07T14:42:40;10.93;;;10.53;;
3943;SDS011;1986;52.546;13.428;2022-12-07T14:45:12;10.87;;;10.57;;
3943;SDS011;1986;52.546;13.428;2022-12-07T14:47:42;10.37;;;9.80;;
3943;SDS011;1986;52.546;13.428;2022-12-07T14:50:11;10.30;;;10.10;;
3943;SDS011;1986;52.546;13.428;2022-12-07T14:52:40;34.97;;;12.23;;
3943;SDS011;1986;52.546;13.428;2022-12-07T14:55:12;11.60;;;11.20;;
3943;SDS011;1986;52.546;13.428;2022-12-07T14:57:42;11.20;;;10.60;;
3943;SDS011;1986;52.546;13.428;2022-12-07T15:00:13;10.60;;;10.20;;
3943;SDS011;1986;52.546;13.428;2022-12-07T15:02:42;11.07;;;10.17;;
3943;SDS011;1986;52.546;13.428;2022-12-07T15:05:09;10.70;;;10.40;;
3943;SDS011;1986;52.546;13.428;2022-12-07T15:07:36;9.37;;;9.10;;
3943;SDS011;1986;52.546;13.428;2022-12-07T15:10:05;9.50;;;9.20;;
3943;SDS011;1986;52.546;13.428;2022-12-07T15:12:39;8.77;;;8.63;;
3943;SDS011;1986;52.546;13.428;2022-12-07T15:15:06;10.07;;;9.67;;
3943;SDS011;1986;52.546;13.428;2022-12-07T15:17:35;9.33;;;9.03;;
3943;SDS011;1986;52.546;13.428;2022-12-07T15:20:02;11.03;;;10.20;;
3943;SDS011;1986;52.546;13.428;2022-12-07T15:22:29;9.37;;;9.07;;
3943;SDS011;1986;52.546;13.428;2022-12-07T15:24:57;11.53;;;10.90;;
3943;SDS011;1986;52.546;13.428;2022-12-07T15:27:27;12.63;;;11.57;;
3943;SDS011;1986;52.546;13.428;2022-12-07T15:29:54;11.43;;;10.73;;
3943;SDS011;1986;52.546;13.428;2022-12-07T15:32:21;10.47;;;10.00;;
3943;SDS011;1986;52.546;13.428;2022-12-07T15:34:49;9.70;;;9.40;;
3943;SDS011;1986;52.546;13.428;2022-12-07T15:37:16;11.83;;;10.90;;
3943;SDS011;1986;52.546;13.428;2022-12-07T15:39:44;11.03;;;10.37;;
3943;SDS011;1986;52.546;13.428;2022-12-07T15:42:11;10.87;;;10.40;;
3943;SDS011;1986;52.546;13.428;2022-12-07T15:44:39;11.37;;;10.10;;
3943;SDS011;1986;52.546;13.428;2022-12-07T15:47:23;10.80;;;10.30;;
3943;SDS011;1986;52.546;13.428;2022-12-07T15:49:51;10.40;;;9.87;;